createdAt,value
2022-10-14T00:05:00.187Z,40.60
2022-10-14T00:11:05.171Z,35.00
2022-10-14T00:17:10.389Z,43.20
2022-10-14T00:22:53.371Z,44.20
2022-10-14T00:28:38.710Z,42.30
2022-10-14T00:34:01.855Z,43.00
2022-10-14T00:39:46.594Z,45.90
2022-10-14T00:45:20.646Z,52.60
2022-10-14T00:50:52.301Z,50.40
2022-10-14T00:56:37.860Z,47.70
2022-10-14T18:05:49.007Z,37.20
2022-10-14T18:11:13.350Z,37.20
2022-10-14T18:22:00.472Z,36.60
2022-10-14T18:27:24.429Z,40.80
2022-10-14T18:32:50.430Z,44.10
2022-10-14T18:38:12.767Z,43.30
2022-10-14T18:43:35.878Z,39.70
2022-10-14T18:49:00.694Z,39.60
2022-10-14T18:54:25.077Z,45.80
2022-10-14T18:59:48.770Z,50.70
2022-10-14T19:05:11.005Z,40.40
2022-10-14T19:10:34.488Z,38.60
2022-10-14T19:16:09.393Z,40.60
2022-10-14T19:26:56.316Z,41.50
2022-10-14T19:37:41.219Z,37.10
2022-10-14T19:43:04.007Z,40.00
2022-10-14T19:48:27.318Z,41.80
2022-10-14T19:53:50.208Z,42.50
2022-10-14T19:59:16.653Z,44.60
2022-10-14T20:04:38.868Z,46.10
2022-10-14T20:10:02.820Z,67.50
2022-10-14T20:16:12.657Z,45.80
2022-10-14T20:22:55.111Z,43.90
2022-10-14T20:29:38.290Z,40.20
2022-10-14T20:36:02.174Z,43.70
2022-10-14T20:42:46.461Z,48.50
2022-10-14T20:49:09.261Z,43.00
2022-10-14T20:55:52.101Z,45.70
2022-10-14T21:02:15.465Z,49.70
2022-10-14T21:08:58.266Z,47.20
2022-10-14T21:15:19.328Z,49.40
2022-10-14T21:22:02.784Z,55.00
2022-10-14T21:27:30.434Z,56.00
2022-10-14T21:38:17.630Z,58.80
2022-10-14T21:43:42.878Z,57.30
2022-10-14T21:49:06.097Z,55.80
2022-10-14T21:54:36.945Z,56.90
2022-10-14T22:00:01.901Z,55.00
2022-10-14T22:05:28.106Z,58.00
2022-10-14T22:10:55.933Z,53.70
2022-10-14T22:16:20.937Z,53.20
2022-10-14T22:21:49.553Z,51.50
2022-10-14T22:27:21.626Z,53.50
2022-10-14T22:33:08.455Z,49.80
2022-10-14T22:38:33.614Z,55.60
2022-10-14T22:44:38.376Z,58.20
2022-10-14T22:50:42.784Z,52.90
2022-10-14T22:57:24.746Z,49.10
2022-10-14T23:03:29.677Z,52.00
2022-10-14T23:09:52.733Z,52.90
2022-10-14T23:16:15.048Z,54.10
2022-10-14T23:22:58.949Z,54.90
2022-10-14T23:29:41.010Z,57.50
2022-10-14T23:36:23.416Z,52.70
2022-10-14T23:42:30.283Z,53.90
2022-10-14T23:49:25.459Z,52.40
2022-10-14T23:56:08.476Z,52.60
